createdAt,value
2022-12-20T00:01:55.814Z,1.50
2022-12-20T00:04:23.846Z,1.60
2022-12-20T00:06:51.834Z,1.53
2022-12-20T00:09:19.704Z,1.50
2022-12-20T00:11:47.583Z,1.63
2022-12-20T00:14:16.903Z,1.60
2022-12-20T00:16:44.839Z,1.53
2022-12-20T00:19:12.782Z,1.80
2022-12-20T00:21:40.695Z,1.70
2022-12-20T00:24:08.906Z,1.60
2022-12-20T00:26:38.040Z,1.60
2022-12-20T00:29:06.413Z,1.40
2022-12-20T00:31:35.755Z,1.40
2022-12-20T00:34:03.703Z,1.60
2022-12-20T00:36:32.709Z,1.60
2022-12-20T00:39:01.356Z,1.60
2022-12-20T00:41:30.236Z,1.50
2022-12-20T00:43:58.236Z,1.40
2022-12-20T00:46:26.351Z,1.67
2022-12-20T00:48:55.844Z,1.50
2022-12-20T00:51:24.724Z,1.50
2022-12-20T00:53:52.877Z,1.30
2022-12-20T00:56:20.832Z,1.40
2022-12-20T00:58:49.699Z,1.40
2022-12-20T01:01:19.755Z,1.40
2022-12-20T01:03:49.593Z,1.30
2022-12-20T01:06:19.074Z,1.60
2022-12-20T01:08:47.137Z,1.40
2022-12-20T01:11:16.334Z,1.33
2022-12-20T01:13:45.741Z,1.40
2022-12-20T01:16:15.165Z,1.27
2022-12-20T01:18:43.243Z,1.40
2022-12-20T01:21:12.083Z,1.40
2022-12-20T01:23:41.450Z,1.50
2022-12-20T01:26:12.062Z,1.30
2022-12-20T01:28:40.956Z,1.30
2022-12-20T01:31:09.642Z,1.53
2022-12-20T01:33:37.690Z,1.57
2022-12-20T01:36:06.927Z,1.30
2022-12-20T01:38:35.441Z,1.30
2022-12-20T01:41:04.878Z,1.40
2022-12-20T01:43:47.085Z,1.40
2022-12-20T01:46:15.240Z,1.30
2022-12-20T01:48:44.005Z,1.30
2022-12-20T01:51:12.380Z,1.50
2022-12-20T01:53:40.355Z,1.20
2022-12-20T01:56:09.798Z,1.30
2022-12-20T01:58:37.707Z,1.33
2022-12-20T02:01:05.710Z,1.20
2022-12-20T02:03:33.709Z,1.30
2022-12-20T02:06:15.228Z,1.23
2022-12-20T02:08:43.230Z,1.20
2022-12-20T02:11:16.943Z,1.20
2022-12-20T02:13:47.188Z,1.40
2022-12-20T02:16:15.899Z,1.10
2022-12-20T02:18:45.899Z,1.30
2022-12-20T02:21:18.006Z,1.10
2022-12-20T02:23:56.955Z,1.20
2022-12-20T02:26:55.513Z,1.20
2022-12-20T02:29:26.275Z,1.30
2022-12-20T02:32:01.549Z,1.20
2022-12-20T02:34:30.151Z,1.30
2022-12-20T02:36:58.054Z,1.10
2022-12-20T02:39:26.321Z,1.00
2022-12-20T02:41:55.347Z,1.20
2022-12-20T02:44:43.245Z,1.20
2022-12-20T02:47:13.902Z,1.10
2022-12-20T02:49:42.242Z,1.17
2022-12-20T02:52:10.374Z,1.20
2022-12-20T02:54:38.678Z,1.20
2022-12-20T02:57:09.331Z,1.23
2022-12-20T02:59:38.667Z,1.17
2022-12-20T03:02:06.825Z,1.10
2022-12-20T03:04:37.514Z,1.17
2022-12-20T03:07:06.424Z,1.20
2022-12-20T03:09:36.264Z,1.10
2022-12-20T03:12:04.374Z,1.20
2022-12-20T03:14:34.577Z,1.10
2022-12-20T03:17:05.260Z,1.20
2022-12-20T03:19:33.194Z,1.10
2022-12-20T03:22:02.490Z,1.00
2022-12-20T03:24:33.498Z,1.13
2022-12-20T03:27:06.541Z,1.20
2022-12-20T03:29:34.449Z,1.00
2022-12-20T03:32:02.770Z,0.93
2022-12-20T03:34:30.904Z,1.10
2022-12-20T03:36:59.081Z,1.20
2022-12-20T03:39:28.358Z,1.10
2022-12-20T03:41:56.915Z,1.20
2022-12-20T03:44:26.494Z,1.00
2022-12-20T03:46:55.313Z,1.00
2022-12-20T03:49:23.372Z,1.23
2022-12-20T03:51:52.935Z,0.97
2022-12-20T03:54:20.921Z,0.90
2022-12-20T03:57:06.548Z,1.10
2022-12-20T03:59:35.568Z,1.00
2022-12-20T04:02:06.775Z,1.00
2022-12-20T04:04:35.185Z,1.27
2022-12-20T04:07:03.135Z,1.10
2022-12-20T04:09:32.375Z,1.10
2022-12-20T04:12:08.485Z,1.07
2022-12-20T04:14:39.036Z,1.00
2022-12-20T04:17:07.780Z,0.90
2022-12-20T04:19:36.502Z,0.97
2022-12-20T04:22:06.491Z,0.90
2022-12-20T04:24:50.928Z,0.90
2022-12-20T04:27:25.289Z,0.90
2022-12-20T04:29:55.107Z,1.00
2022-12-20T04:32:24.357Z,0.93
2022-12-20T04:34:52.402Z,1.03
2022-12-20T04:37:21.247Z,1.00
2022-12-20T04:39:55.127Z,1.07
2022-12-20T04:42:27.830Z,1.10
2022-12-20T04:44:56.947Z,0.90
2022-12-20T04:47:28.550Z,0.80
2022-12-20T04:49:56.881Z,1.00
2022-12-20T04:52:47.348Z,0.90
2022-12-20T04:55:16.248Z,0.93
2022-12-20T04:57:45.548Z,0.90
2022-12-20T05:00:15.384Z,1.00
2022-12-20T05:02:46.035Z,1.00
2022-12-20T05:05:17.610Z,0.90
2022-12-20T05:07:50.676Z,0.80
2022-12-20T05:10:19.667Z,0.80
2022-12-20T05:12:49.795Z,0.90
2022-12-20T05:15:29.365Z,0.90
2022-12-20T05:17:59.457Z,0.90
2022-12-20T05:20:33.686Z,0.80
2022-12-20T05:23:19.745Z,1.00
2022-12-20T05:26:09.107Z,1.00
2022-12-20T05:28:40.272Z,1.03
2022-12-20T05:31:08.362Z,0.90
2022-12-20T05:33:37.419Z,0.87
2022-12-20T05:36:06.927Z,1.40
2022-12-20T05:38:34.893Z,1.73
2022-12-20T05:41:06.610Z,1.80
2022-12-20T05:43:35.177Z,1.87
2022-12-20T05:46:06.480Z,1.70
2022-12-20T05:48:43.687Z,1.57
2022-12-20T05:51:12.047Z,1.80
2022-12-20T05:53:57.377Z,2.13
2022-12-20T05:56:40.735Z,2.57
2022-12-20T05:59:09.362Z,2.40
2022-12-20T06:01:39.645Z,2.50
2022-12-20T06:04:07.752Z,2.33
2022-12-20T06:06:35.831Z,2.50
2022-12-20T06:09:03.794Z,2.17
2022-12-20T06:11:40.890Z,2.73
2022-12-20T06:14:11.839Z,2.57
2022-12-20T06:16:46.691Z,2.30
2022-12-20T06:19:21.390Z,2.40
2022-12-20T06:21:51.126Z,2.20
2022-12-20T06:24:25.476Z,2.30
2022-12-20T06:26:54.320Z,2.60
2022-12-20T06:29:24.598Z,2.57
2022-12-20T06:31:58.194Z,2.50
2022-12-20T06:34:26.513Z,2.33
2022-12-20T06:36:54.700Z,2.30
2022-12-20T06:39:26.944Z,2.23
2022-12-20T06:42:02.435Z,2.60
2022-12-20T06:44:30.590Z,2.50
2022-12-20T06:46:59.868Z,2.37
2022-12-20T06:49:28.092Z,2.40
2022-12-20T06:51:56.781Z,2.70
2022-12-20T06:54:33.570Z,2.40
2022-12-20T06:57:01.571Z,2.30
2022-12-20T06:59:29.676Z,2.50
2022-12-20T07:01:59.236Z,2.30
2022-12-20T07:04:27.362Z,2.40
2022-12-20T07:06:55.252Z,2.23
2022-12-20T07:09:23.150Z,2.10
2022-12-20T07:11:52.026Z,2.80
2022-12-20T07:14:19.954Z,2.30
2022-12-20T07:16:47.972Z,1.87
2022-12-20T07:19:17.312Z,2.30
2022-12-20T07:21:45.304Z,2.17
2022-12-20T07:24:13.290Z,2.13
2022-12-20T07:26:41.291Z,2.20
2022-12-20T07:29:15.067Z,2.27
2022-12-20T07:31:43.810Z,2.23
2022-12-20T07:34:11.933Z,2.43
2022-12-20T07:36:41.190Z,2.50
2022-12-20T07:39:09.113Z,2.27
2022-12-20T07:41:37.037Z,2.40
2022-12-20T07:44:06.270Z,2.13
2022-12-20T07:46:34.754Z,2.13
2022-12-20T07:49:02.808Z,2.10
2022-12-20T07:51:32.629Z,2.30
2022-12-20T07:54:03.331Z,2.00
2022-12-20T07:56:33.575Z,2.10
2022-12-20T07:59:05.347Z,2.40
2022-12-20T08:01:33.388Z,2.20
2022-12-20T08:04:03.663Z,2.27
2022-12-20T08:06:31.605Z,2.00
2022-12-20T08:09:01.795Z,2.43
2022-12-20T08:11:29.892Z,2.23
2022-12-20T08:13:58.540Z,2.33
2022-12-20T08:16:26.667Z,2.43
2022-12-20T08:18:54.603Z,1.90
2022-12-20T08:21:22.507Z,2.50
2022-12-20T08:23:50.506Z,2.10
2022-12-20T08:26:19.774Z,2.23
2022-12-20T08:28:47.806Z,2.30
2022-12-20T08:31:15.793Z,2.27
2022-12-20T08:33:43.841Z,2.13
2022-12-20T08:36:12.768Z,2.20
2022-12-20T08:38:40.777Z,2.33
2022-12-20T08:41:10.984Z,2.00
2022-12-20T08:43:40.428Z,1.80
2022-12-20T08:46:08.515Z,1.90
2022-12-20T08:48:36.457Z,2.00
2022-12-20T08:51:05.595Z,2.10
2022-12-20T08:53:33.836Z,2.17
2022-12-20T08:56:06.053Z,2.03
2022-12-20T08:58:34.005Z,1.93
2022-12-20T09:01:06.763Z,2.10
2022-12-20T09:03:35.227Z,2.03
2022-12-20T09:06:06.635Z,1.77
2022-12-20T09:08:34.710Z,1.77
2022-12-20T09:11:05.642Z,1.90
2022-12-20T09:13:36.607Z,1.80
2022-12-20T09:16:10.911Z,2.17
2022-12-20T09:18:38.903Z,1.80
2022-12-20T09:21:07.633Z,2.07
2022-12-20T09:23:36.586Z,1.73
2022-12-20T09:26:04.927Z,1.80
2022-12-20T09:28:33.004Z,2.00
2022-12-20T09:31:01.355Z,1.73
2022-12-20T09:33:31.037Z,2.00
2022-12-20T09:35:59.184Z,2.10
2022-12-20T09:38:27.527Z,1.70
2022-12-20T09:40:56.632Z,2.10
2022-12-20T09:43:24.652Z,1.83
2022-12-20T09:45:54.565Z,1.80
2022-12-20T09:48:24.007Z,1.90
2022-12-20T09:50:58.063Z,2.20
2022-12-20T09:53:29.476Z,2.13
2022-12-20T09:56:00.173Z,2.07
2022-12-20T09:58:35.805Z,1.93
2022-12-20T10:01:15.333Z,2.00
2022-12-20T10:03:43.654Z,2.17
2022-12-20T10:06:18.187Z,2.50
2022-12-20T10:08:46.970Z,2.70
2022-12-20T10:11:50.163Z,2.00
2022-12-20T10:14:29.956Z,2.30
2022-12-20T10:16:59.765Z,2.37
2022-12-20T10:19:47.473Z,2.63
2022-12-20T10:22:18.704Z,2.43
2022-12-20T10:24:49.210Z,2.60
2022-12-20T10:27:18.599Z,2.70
2022-12-20T10:29:46.691Z,3.00
2022-12-20T10:32:15.984Z,2.70
2022-12-20T10:34:48.736Z,2.43
2022-12-20T10:37:18.243Z,2.90
2022-12-20T10:39:48.731Z,2.83
2022-12-20T10:42:35.657Z,2.90
2022-12-20T10:45:03.572Z,2.47
2022-12-20T10:47:37.599Z,2.80
2022-12-20T10:50:16.352Z,2.93
2022-12-20T10:52:46.026Z,2.60
2022-12-20T10:55:41.197Z,2.73
2022-12-20T10:58:16.043Z,2.80
2022-12-20T11:00:43.959Z,3.07
2022-12-20T11:03:15.750Z,3.30
2022-12-20T11:05:54.615Z,2.83
2022-12-20T11:08:50.083Z,2.57
2022-12-20T11:11:16.435Z,2.73
2022-12-20T11:13:44.597Z,3.17
2022-12-20T11:16:35.990Z,3.30
2022-12-20T11:19:17.322Z,2.60
2022-12-20T11:21:47.759Z,3.23
2022-12-20T11:24:19.411Z,3.20
2022-12-20T11:26:56.788Z,2.93
2022-12-20T11:29:51.505Z,3.13
2022-12-20T11:32:26.647Z,3.00
2022-12-20T11:34:58.640Z,3.20
2022-12-20T11:37:27.700Z,3.07
2022-12-20T11:40:07.141Z,3.17
2022-12-20T11:42:43.853Z,3.30
2022-12-20T11:45:15.349Z,3.10
2022-12-20T11:48:05.432Z,3.23
2022-12-20T11:50:43.698Z,3.20
2022-12-20T11:53:14.388Z,3.40
2022-12-20T11:55:44.370Z,3.37
2022-12-20T11:58:19.101Z,3.13
2022-12-20T12:00:52.356Z,2.90
2022-12-20T12:03:22.803Z,3.30
2022-12-20T12:05:53.503Z,3.40
2022-12-20T12:08:24.455Z,3.50
2022-12-20T12:10:57.421Z,3.30
2022-12-20T12:13:27.352Z,3.40
2022-12-20T12:15:56.356Z,3.33
2022-12-20T12:18:26.092Z,3.47
2022-12-20T12:20:57.234Z,3.50
2022-12-20T12:23:27.662Z,3.40
2022-12-20T12:25:56.968Z,3.50
2022-12-20T12:28:24.881Z,3.80
2022-12-20T12:30:55.640Z,3.40
2022-12-20T12:33:25.816Z,3.50
2022-12-20T12:36:05.127Z,3.23
2022-12-20T12:39:01.847Z,3.80
2022-12-20T12:42:15.929Z,3.10
2022-12-20T12:44:49.054Z,3.60
2022-12-20T12:47:18.316Z,3.37
2022-12-20T12:49:48.320Z,3.43
2022-12-20T12:52:38.111Z,3.30
2022-12-20T12:55:22.164Z,3.47
2022-12-20T12:57:56.516Z,3.70
2022-12-20T13:00:53.071Z,3.20
2022-12-20T13:03:37.363Z,3.20
2022-12-20T13:06:38.832Z,3.57
2022-12-20T13:09:22.247Z,3.20
2022-12-20T13:11:55.521Z,3.00
2022-12-20T13:14:50.090Z,3.10
2022-12-20T13:17:47.027Z,3.13
2022-12-20T13:20:22.459Z,3.00
2022-12-20T13:23:17.223Z,3.30
2022-12-20T13:25:46.022Z,3.20
2022-12-20T13:28:49.367Z,3.03
2022-12-20T13:31:33.796Z,3.33
2022-12-20T13:34:04.038Z,3.00
2022-12-20T13:36:34.244Z,2.80
2022-12-20T13:39:03.640Z,3.03
2022-12-20T13:41:39.602Z,2.80
2022-12-20T13:44:32.035Z,3.00
2022-12-20T13:47:02.288Z,3.00
2022-12-20T13:49:33.473Z,3.10
2022-12-20T13:52:17.314Z,2.70
2022-12-20T13:54:46.265Z,2.93
2022-12-20T13:57:16.787Z,3.10
2022-12-20T13:59:47.192Z,3.07
2022-12-20T14:02:20.117Z,2.93
2022-12-20T14:04:54.718Z,2.77
2022-12-20T14:07:22.868Z,2.80
2022-12-20T14:09:56.837Z,2.80
2022-12-20T14:12:29.901Z,2.63
2022-12-20T14:15:00.835Z,2.80
2022-12-20T14:17:30.031Z,2.67
2022-12-20T14:20:07.882Z,2.70
2022-12-20T14:22:36.088Z,2.70
2022-12-20T14:25:05.395Z,2.60
2022-12-20T14:27:35.094Z,2.40
2022-12-20T14:30:03.042Z,2.83
2022-12-20T14:32:30.919Z,3.03
2022-12-20T14:34:58.846Z,2.70
2022-12-20T14:37:31.472Z,2.50
2022-12-20T14:40:00.292Z,2.67
2022-12-20T14:42:35.846Z,2.63
2022-12-20T14:45:05.453Z,2.57
2022-12-20T14:47:33.422Z,2.40
2022-12-20T14:50:02.188Z,2.70
2022-12-20T14:52:35.237Z,2.70
2022-12-20T14:55:09.059Z,2.60
2022-12-20T14:57:41.826Z,2.43
2022-12-20T15:00:15.275Z,2.40
2022-12-20T15:02:44.136Z,2.30
2022-12-20T15:05:47.074Z,2.83
2022-12-20T15:08:18.290Z,3.47
2022-12-20T15:10:53.036Z,4.33
2022-12-20T15:13:21.860Z,2.77
2022-12-20T15:15:49.862Z,2.93
2022-12-20T15:18:19.112Z,3.40
2022-12-20T15:20:49.188Z,3.57
2022-12-20T15:23:19.017Z,4.13
2022-12-20T15:25:46.956Z,3.43
2022-12-20T15:28:16.436Z,3.27
2022-12-20T15:30:44.359Z,3.23
2022-12-20T15:33:16.451Z,3.20
2022-12-20T15:35:44.866Z,3.23
2022-12-20T15:38:25.529Z,3.27
2022-12-20T15:41:05.594Z,3.43
2022-12-20T15:43:38.710Z,3.23
2022-12-20T15:46:07.167Z,3.20
2022-12-20T15:48:35.105Z,3.20
2022-12-20T15:51:03.176Z,3.10
2022-12-20T15:53:34.500Z,3.37
2022-12-20T15:56:02.453Z,3.27
2022-12-20T15:58:30.389Z,3.10
2022-12-20T16:01:01.113Z,2.73
2022-12-20T16:03:31.347Z,2.73
2022-12-20T16:05:59.402Z,2.60
2022-12-20T16:08:27.334Z,2.73
2022-12-20T16:10:56.575Z,2.97
2022-12-20T16:13:25.186Z,2.80
2022-12-20T16:15:53.808Z,2.33
2022-12-20T16:18:21.740Z,2.60
2022-12-20T16:20:49.617Z,2.40
2022-12-20T16:23:18.674Z,2.80
2022-12-20T16:25:46.700Z,2.70
2022-12-20T16:28:15.968Z,2.57
2022-12-20T16:30:50.954Z,2.20
2022-12-20T16:33:21.523Z,2.30
2022-12-20T16:35:49.545Z,2.27
2022-12-20T16:38:18.152Z,2.10
2022-12-20T16:40:46.090Z,2.20
2022-12-20T16:43:18.272Z,2.70
2022-12-20T16:45:46.193Z,2.30
2022-12-20T16:48:14.096Z,2.60
2022-12-20T16:50:43.333Z,2.53
2022-12-20T16:53:14.324Z,2.40
2022-12-20T16:55:42.302Z,2.40
2022-12-20T16:58:10.330Z,2.30
2022-12-20T17:00:39.625Z,2.33
2022-12-20T17:03:07.807Z,2.33
2022-12-20T17:05:37.497Z,2.23
2022-12-20T17:10:52.031Z,2.67
2022-12-20T17:13:19.937Z,2.13
2022-12-20T17:15:49.219Z,2.37
2022-12-20T17:18:17.131Z,2.17
2022-12-20T17:20:45.062Z,2.00
2022-12-20T17:23:13.802Z,2.50
2022-12-20T17:25:41.964Z,2.00
2022-12-20T17:28:09.969Z,2.33
2022-12-20T17:30:38.136Z,2.37
2022-12-20T17:33:07.412Z,2.37
2022-12-20T17:35:35.791Z,1.90
2022-12-20T17:38:06.849Z,2.00
2022-12-20T17:40:34.783Z,1.90
2022-12-20T17:43:02.692Z,2.10
2022-12-20T17:45:31.440Z,1.90
2022-12-20T17:47:59.733Z,1.90
2022-12-20T17:50:29.077Z,2.17
2022-12-20T17:52:57.128Z,2.20
2022-12-20T17:55:26.092Z,1.77
2022-12-20T17:57:54.070Z,1.77
2022-12-20T18:00:28.029Z,1.80
2022-12-20T18:02:58.749Z,2.00
2022-12-20T18:05:28.132Z,1.93
2022-12-20T18:07:56.503Z,2.03
2022-12-20T18:10:24.574Z,1.90
2022-12-20T18:12:52.595Z,1.90
2022-12-20T18:15:20.526Z,1.80
2022-12-20T18:17:48.471Z,2.00
2022-12-20T18:20:17.388Z,1.97
2022-12-20T18:22:46.991Z,1.60
2022-12-20T18:25:18.175Z,1.50
2022-12-20T18:27:46.199Z,1.60
2022-12-20T18:30:14.593Z,1.70
2022-12-20T18:32:42.569Z,1.60
2022-12-20T18:35:11.234Z,1.63
2022-12-20T18:37:39.170Z,1.83
2022-12-20T18:40:10.076Z,1.80
2022-12-20T18:42:40.721Z,1.70
2022-12-20T18:45:11.250Z,1.60
2022-12-20T18:47:39.321Z,1.87
2022-12-20T18:50:08.520Z,1.87
2022-12-20T18:52:38.686Z,1.50
2022-12-20T18:55:08.844Z,1.90
2022-12-20T18:57:36.754Z,1.70
2022-12-20T19:00:05.492Z,1.60
2022-12-20T19:02:33.595Z,1.60
2022-12-20T19:05:02.018Z,1.77
2022-12-20T19:07:29.922Z,1.67
2022-12-20T19:09:57.811Z,1.37
2022-12-20T19:12:27.132Z,1.47
2022-12-20T19:14:55.219Z,1.63
2022-12-20T19:17:23.216Z,1.60
2022-12-20T19:19:51.142Z,1.40
2022-12-20T19:22:19.418Z,1.80
2022-12-20T19:24:47.339Z,1.70
2022-12-20T19:27:15.745Z,1.53
2022-12-20T19:29:45.018Z,1.80
2022-12-20T19:32:12.922Z,1.60
2022-12-20T19:34:40.836Z,1.30
2022-12-20T19:37:08.721Z,1.53
2022-12-20T19:39:36.779Z,1.43
2022-12-20T19:42:23.480Z,1.50
2022-12-20T19:44:54.038Z,1.70
2022-12-20T19:47:21.959Z,1.60
2022-12-20T19:49:50.194Z,1.40
2022-12-20T19:52:28.638Z,1.40
2022-12-20T19:54:57.123Z,1.50
2022-12-20T19:57:25.132Z,1.50
2022-12-20T19:59:56.108Z,1.50
2022-12-20T20:02:24.692Z,1.30
2022-12-20T20:04:53.163Z,1.50
2022-12-20T20:07:21.059Z,1.23
2022-12-20T20:09:48.950Z,1.23
2022-12-20T20:12:16.841Z,1.40
2022-12-20T20:14:45.757Z,1.30
2022-12-20T20:17:15.062Z,1.50
2022-12-20T20:19:42.940Z,1.40
2022-12-20T20:22:11.292Z,1.43
2022-12-20T20:24:39.251Z,1.57
2022-12-20T20:27:07.159Z,1.43
2022-12-20T20:29:35.126Z,1.43
2022-12-20T20:32:03.344Z,1.37
2022-12-20T20:34:32.724Z,1.30
2022-12-20T20:37:00.972Z,1.30
2022-12-20T20:39:28.849Z,1.27
2022-12-20T20:41:56.758Z,1.40
2022-12-20T20:44:24.687Z,1.30
2022-12-20T20:46:52.841Z,1.40
2022-12-20T20:49:20.795Z,1.30
2022-12-20T20:51:50.040Z,1.30
2022-12-20T20:54:18.184Z,1.13
2022-12-20T20:56:46.113Z,1.33
2022-12-20T20:59:17.799Z,1.37
2022-12-20T21:01:46.164Z,1.20
2022-12-20T21:04:14.274Z,1.30
2022-12-20T21:06:42.487Z,1.20
2022-12-20T21:09:12.070Z,1.47
2022-12-20T21:11:40.197Z,1.50
2022-12-20T21:14:08.185Z,1.33
2022-12-20T21:16:36.636Z,1.30
2022-12-20T21:19:05.607Z,1.30
2022-12-20T21:21:33.560Z,1.10
2022-12-20T21:24:01.463Z,1.40
2022-12-20T21:26:30.747Z,1.30
2022-12-20T21:28:58.757Z,1.10
2022-12-20T21:31:26.782Z,1.10
2022-12-20T21:33:56.537Z,1.20
2022-12-20T21:36:24.612Z,1.23
2022-12-20T21:38:53.210Z,1.10
2022-12-20T21:41:23.111Z,1.20
2022-12-20T21:43:52.531Z,1.13
2022-12-20T21:46:20.441Z,1.10
2022-12-20T21:48:48.309Z,1.20
2022-12-20T21:51:17.126Z,1.03
2022-12-20T21:53:46.196Z,1.30
2022-12-20T21:56:15.588Z,1.33
2022-12-20T21:58:43.785Z,1.10
2022-12-20T22:01:15.449Z,1.13
2022-12-20T22:03:44.421Z,1.30
2022-12-20T22:06:12.714Z,1.13
2022-12-20T22:08:40.737Z,1.13
2022-12-20T22:11:10.639Z,0.93
2022-12-20T22:13:41.636Z,1.20
2022-12-20T22:16:10.788Z,1.13
2022-12-20T22:18:40.235Z,1.10
2022-12-20T22:21:09.269Z,1.20
2022-12-20T22:23:37.395Z,1.13
2022-12-20T22:26:05.453Z,1.20
2022-12-20T22:28:33.432Z,1.20
2022-12-20T22:31:01.371Z,1.10
2022-12-20T22:33:29.257Z,1.20
2022-12-20T22:36:00.156Z,1.00
2022-12-20T22:38:28.121Z,1.00
2022-12-20T22:40:58.917Z,1.27
2022-12-20T22:43:26.906Z,1.00
2022-12-20T22:45:58.167Z,1.00
2022-12-20T22:48:26.298Z,1.00
2022-12-20T22:51:00.421Z,1.10
2022-12-20T22:53:28.361Z,1.00
2022-12-20T22:55:56.249Z,1.10
2022-12-20T22:58:24.180Z,1.20
2022-12-20T23:00:52.104Z,1.10
2022-12-20T23:03:20.040Z,1.10
2022-12-20T23:05:54.020Z,1.00
2022-12-20T23:08:23.676Z,1.10
2022-12-20T23:11:09.320Z,1.03
2022-12-20T23:13:54.877Z,1.00
2022-12-20T23:16:24.676Z,1.30
2022-12-20T23:18:54.958Z,1.00
2022-12-20T23:21:40.273Z,1.10
2022-12-20T23:24:09.651Z,1.37
2022-12-20T23:26:38.357Z,1.00
2022-12-20T23:29:06.896Z,1.00
2022-12-20T23:31:34.825Z,1.07
2022-12-20T23:34:02.917Z,0.80
2022-12-20T23:36:30.823Z,1.00
2022-12-20T23:38:58.768Z,1.17
2022-12-20T23:41:28.041Z,1.03
2022-12-20T23:43:55.935Z,1.00
2022-12-20T23:46:23.917Z,0.90
2022-12-20T23:48:51.973Z,0.97
2022-12-20T23:51:20.093Z,0.90
2022-12-20T23:53:48.081Z,1.10
2022-12-20T23:56:17.464Z,0.90
2022-12-20T23:58:46.987Z,1.10
